sensor_id;sensor_type;location;lat;lon;timestamp;P1;durP1;ratioP1;P2;durP2;ratioP2
54983;SDS011;40884;53.562;9.940;2022-11-27T00:00:37;22.47;;;9.60;;
54983;SDS011;40884;53.562;9.940;2022-11-27T00:01:38;22.97;;;10.23;;
54983;SDS011;40884;53.562;9.940;2022-11-27T00:02:38;27.08;;;11.05;;
54983;SDS011;40884;53.562;9.940;2022-11-27T00:03:38;30.47;;;11.87;;
54983;SDS011;40884;53.562;9.940;2022-11-27T00:04:39;25.97;;;13.07;;
54983;SDS011;40884;53.562;9.940;2022-11-27T00:05:39;31.37;;;14.23;;
54983;SDS011;40884;53.562;9.940;2022-11-27T00:06:39;30.67;;;14.00;;
54983;SDS011;40884;53.562;9.940;2022-11-27T00:07:39;25.70;;;13.47;;
54983;SDS011;40884;53.562;9.940;2022-11-27T00:08:40;30.63;;;14.33;;
54983;SDS011;40884;53.562;9.940;2022-11-27T00:09:40;32.10;;;14.83;;
54983;SDS011;40884;53.562;9.940;2022-11-27T00:10:40;32.47;;;14.47;;
54983;SDS011;40884;53.562;9.940;2022-11-27T00:11:40;32.63;;;15.83;;
54983;SDS011;40884;53.562;9.940;2022-11-27T00:12:41;30.27;;;15.47;;
54983;SDS011;40884;53.562;9.940;2022-11-27T00:13:41;33.50;;;16.47;;
54983;SDS011;40884;53.562;9.940;2022-11-27T00:14:41;33.20;;;15.57;;
54983;SDS011;40884;53.562;9.940;2022-11-27T00:15:41;35.20;;;15.80;;
54983;SDS011;40884;53.562;9.940;2022-11-27T00:16:41;33.03;;;15.43;;
54983;SDS011;40884;53.562;9.940;2022-11-27T00:17:42;34.87;;;15.90;;
54983;SDS011;40884;53.562;9.940;2022-11-27T00:18:42;28.53;;;14.93;;
54983;SDS011;40884;53.562;9.940;2022-11-27T00:19:42;35.87;;;14.90;;
54983;SDS011;40884;53.562;9.940;2022-11-27T00:20:42;28.23;;;14.43;;
54983;SDS011;40884;53.562;9.940;2022-11-27T00:21:42;29.77;;;15.13;;
54983;SDS011;40884;53.562;9.940;2022-11-27T00:22:43;31.87;;;14.63;;
54983;SDS011;40884;53.562;9.940;2022-11-27T00:23:43;23.80;;;14.43;;
54983;SDS011;40884;53.562;9.940;2022-11-27T00:24:43;33.07;;;15.20;;
54983;SDS011;40884;53.562;9.940;2022-11-27T00:25:50;31.17;;;14.37;;
54983;SDS011;40884;53.562;9.940;2022-11-27T00:26:50;34.05;;;15.15;;
54983;SDS011;40884;53.562;9.940;2022-11-27T00:27:51;29.30;;;13.33;;
54983;SDS011;40884;53.562;9.940;2022-11-27T00:28:51;32.20;;;13.93;;
54983;SDS011;40884;53.562;9.940;2022-11-27T00:29:51;34.90;;;14.63;;
54983;SDS011;40884;53.562;9.940;2022-11-27T00:30:51;27.60;;;13.90;;
54983;SDS011;40884;53.562;9.940;2022-11-27T00:31:51;29.07;;;13.33;;
54983;SDS011;40884;53.562;9.940;2022-11-27T00:32:51;30.90;;;14.27;;
54983;SDS011;40884;53.562;9.940;2022-11-27T00:33:58;34.97;;;14.00;;
54983;SDS011;40884;53.562;9.940;2022-11-27T00:34:59;27.65;;;13.90;;
54983;SDS011;40884;53.562;9.940;2022-11-27T00:36:02;29.53;;;13.77;;
54983;SDS011;40884;53.562;9.940;2022-11-27T00:37:02;33.08;;;13.73;;
54983;SDS011;40884;53.562;9.940;2022-11-27T00:38:04;23.98;;;12.27;;
54983;SDS011;40884;53.562;9.940;2022-11-27T00:39:04;24.73;;;12.67;;
54983;SDS011;40884;53.562;9.940;2022-11-27T00:40:05;23.80;;;12.40;;
54983;SDS011;40884;53.562;9.940;2022-11-27T00:41:09;25.57;;;13.00;;
54983;SDS011;40884;53.562;9.940;2022-11-27T00:42:09;24.58;;;12.32;;
54983;SDS011;40884;53.562;9.940;2022-11-27T00:43:09;29.10;;;11.93;;
54983;SDS011;40884;53.562;9.940;2022-11-27T00:44:10;26.30;;;11.67;;
54983;SDS011;40884;53.562;9.940;2022-11-27T00:45:11;22.87;;;11.70;;
54983;SDS011;40884;53.562;9.940;2022-11-27T00:46:12;23.37;;;11.40;;
54983;SDS011;40884;53.562;9.940;2022-11-27T00:47:12;25.80;;;11.43;;
54983;SDS011;40884;53.562;9.940;2022-11-27T00:48:12;22.13;;;10.40;;
54983;SDS011;40884;53.562;9.940;2022-11-27T00:49:13;28.33;;;11.53;;
54983;SDS011;40884;53.562;9.940;2022-11-27T00:50:13;25.57;;;10.43;;
54983;SDS011;40884;53.562;9.940;2022-11-27T00:51:15;22.93;;;10.33;;
54983;SDS011;40884;53.562;9.940;2022-11-27T00:52:15;24.00;;;10.38;;
54983;SDS011;40884;53.562;9.940;2022-11-27T00:53:15;21.87;;;9.77;;
54983;SDS011;40884;53.562;9.940;2022-11-27T00:54:15;21.43;;;9.03;;
54983;SDS011;40884;53.562;9.940;2022-11-27T00:55:16;20.53;;;9.03;;
54983;SDS011;40884;53.562;9.940;2022-11-27T00:56:17;25.87;;;10.07;;
54983;SDS011;40884;53.562;9.940;2022-11-27T00:57:17;20.70;;;8.73;;
54983;SDS011;40884;53.562;9.940;2022-11-27T00:58:17;20.63;;;9.23;;
54983;SDS011;40884;53.562;9.940;2022-11-27T00:59:17;20.43;;;9.20;;
54983;SDS011;40884;53.562;9.940;2022-11-27T01:00:17;22.13;;;8.50;;
54983;SDS011;40884;53.562;9.940;2022-11-27T01:01:19;21.00;;;9.10;;
54983;SDS011;40884;53.562;9.940;2022-11-27T01:02:19;21.42;;;8.07;;
54983;SDS011;40884;53.562;9.940;2022-11-27T01:03:19;20.37;;;8.90;;
54983;SDS011;40884;53.562;9.940;2022-11-27T01:04:19;18.97;;;7.73;;
54983;SDS011;40884;53.562;9.940;2022-11-27T01:05:19;19.13;;;8.23;;
54983;SDS011;40884;53.562;9.940;2022-11-27T01:06:20;18.07;;;8.27;;
54983;SDS011;40884;53.562;9.940;2022-11-27T01:07:20;18.80;;;7.90;;
54983;SDS011;40884;53.562;9.940;2022-11-27T01:08:20;19.80;;;8.27;;
54983;SDS011;40884;53.562;9.940;2022-11-27T01:09:20;19.47;;;8.07;;
54983;SDS011;40884;53.562;9.940;2022-11-27T01:10:20;19.53;;;7.50;;
54983;SDS011;40884;53.562;9.940;2022-11-27T01:11:21;23.10;;;8.33;;
54983;SDS011;40884;53.562;9.940;2022-11-27T01:12:22;22.98;;;8.13;;
54983;SDS011;40884;53.562;9.940;2022-11-27T01:13:23;20.23;;;8.37;;
54983;SDS011;40884;53.562;9.940;2022-11-27T01:14:23;19.63;;;7.80;;
54983;SDS011;40884;53.562;9.940;2022-11-27T01:15:23;15.80;;;8.07;;
54983;SDS011;40884;53.562;9.940;2022-11-27T01:16:24;19.47;;;8.00;;
54983;SDS011;40884;53.562;9.940;2022-11-27T01:17:25;20.50;;;8.18;;
54983;SDS011;40884;53.562;9.940;2022-11-27T01:18:25;23.03;;;7.77;;
54983;SDS011;40884;53.562;9.940;2022-11-27T01:19:25;16.73;;;7.10;;
54983;SDS011;40884;53.562;9.940;2022-11-27T01:20:26;16.33;;;6.90;;
54983;SDS011;40884;53.562;9.940;2022-11-27T01:21:27;20.00;;;7.50;;
54983;SDS011;40884;53.562;9.940;2022-11-27T01:22:27;21.33;;;7.05;;
54983;SDS011;40884;53.562;9.940;2022-11-27T01:23:28;19.03;;;7.27;;
54983;SDS011;40884;53.562;9.940;2022-11-27T01:24:28;17.30;;;7.17;;
54983;SDS011;40884;53.562;9.940;2022-11-27T01:25:28;16.83;;;7.63;;
54983;SDS011;40884;53.562;9.940;2022-11-27T01:26:28;18.13;;;7.23;;
54983;SDS011;40884;53.562;9.940;2022-11-27T01:27:28;20.80;;;7.20;;
54983;SDS011;40884;53.562;9.940;2022-11-27T01:28:29;15.47;;;7.07;;
54983;SDS011;40884;53.562;9.940;2022-11-27T01:29:29;17.53;;;7.30;;
54983;SDS011;40884;53.562;9.940;2022-11-27T01:30:29;18.20;;;7.00;;
54983;SDS011;40884;53.562;9.940;2022-11-27T01:31:30;21.80;;;7.43;;
54983;SDS011;40884;53.562;9.940;2022-11-27T01:32:30;19.97;;;7.30;;
54983;SDS011;40884;53.562;9.940;2022-11-27T01:33:30;12.30;;;6.70;;
54983;SDS011;40884;53.562;9.940;2022-11-27T01:34:31;23.83;;;7.37;;
54983;SDS011;40884;53.562;9.940;2022-11-27T01:35:31;17.10;;;6.80;;
54983;SDS011;40884;53.562;9.940;2022-11-27T01:36:31;15.33;;;6.40;;
54983;SDS011;40884;53.562;9.940;2022-11-27T01:37:31;17.93;;;6.73;;
54983;SDS011;40884;53.562;9.940;2022-11-27T01:38:32;16.37;;;5.97;;
54983;SDS011;40884;53.562;9.940;2022-11-27T01:39:32;13.43;;;6.50;;
54983;SDS011;40884;53.562;9.940;2022-11-27T01:40:32;16.03;;;5.70;;
54983;SDS011;40884;53.562;9.940;2022-11-27T01:41:34;13.10;;;5.50;;
54983;SDS011;40884;53.562;9.940;2022-11-27T01:42:34;11.20;;;5.20;;
54983;SDS011;40884;53.562;9.940;2022-11-27T01:43:43;15.53;;;6.20;;
54983;SDS011;40884;53.562;9.940;2022-11-27T01:44:47;13.95;;;6.30;;
54983;SDS011;40884;53.562;9.940;2022-11-27T01:45:48;15.18;;;5.88;;
54983;SDS011;40884;53.562;9.940;2022-11-27T01:46:57;15.93;;;6.53;;
54983;SDS011;40884;53.562;9.940;2022-11-27T01:47:59;13.40;;;5.67;;
54983;SDS011;40884;53.562;9.940;2022-11-27T01:50:11;15.37;;;6.00;;
54983;SDS011;40884;53.562;9.940;2022-11-27T01:51:12;18.50;;;6.97;;
54983;SDS011;40884;53.562;9.940;2022-11-27T01:52:14;16.50;;;6.50;;
54983;SDS011;40884;53.562;9.940;2022-11-27T01:53:16;14.07;;;6.60;;
54983;SDS011;40884;53.562;9.940;2022-11-27T01:54:17;17.30;;;6.73;;
54983;SDS011;40884;53.562;9.940;2022-11-27T01:55:20;18.00;;;6.80;;
54983;SDS011;40884;53.562;9.940;2022-11-27T01:56:21;12.27;;;6.63;;
54983;SDS011;40884;53.562;9.940;2022-11-27T01:57:24;13.02;;;6.45;;
54983;SDS011;40884;53.562;9.940;2022-11-27T01:58:26;14.38;;;6.25;;
54983;SDS011;40884;53.562;9.940;2022-11-27T01:59:27;16.65;;;6.65;;
54983;SDS011;40884;53.562;9.940;2022-11-27T02:00:27;17.90;;;7.50;;
54983;SDS011;40884;53.562;9.940;2022-11-27T02:01:28;17.13;;;7.50;;
54983;SDS011;40884;53.562;9.940;2022-11-27T02:02:28;21.83;;;7.27;;
54983;SDS011;40884;53.562;9.940;2022-11-27T02:03:31;18.20;;;7.28;;
54983;SDS011;40884;53.562;9.940;2022-11-27T02:04:31;14.57;;;7.77;;
54983;SDS011;40884;53.562;9.940;2022-11-27T02:05:31;25.43;;;8.60;;
54983;SDS011;40884;53.562;9.940;2022-11-27T02:06:32;20.50;;;8.43;;
54983;SDS011;40884;53.562;9.940;2022-11-27T02:07:32;17.80;;;7.80;;
54983;SDS011;40884;53.562;9.940;2022-11-27T02:08:32;14.27;;;8.07;;
54983;SDS011;40884;53.562;9.940;2022-11-27T02:09:32;17.83;;;8.73;;
54983;SDS011;40884;53.562;9.940;2022-11-27T02:13:08;18.05;;;7.85;;
54983;SDS011;40884;53.562;9.940;2022-11-27T02:14:18;21.35;;;8.00;;
54983;SDS011;40884;53.562;9.940;2022-11-27T02:18:24;17.17;;;8.40;;
54983;SDS011;40884;53.562;9.940;2022-11-27T02:19:35;16.73;;;8.05;;
54983;SDS011;40884;53.562;9.940;2022-11-27T02:20:42;13.20;;;6.90;;
54983;SDS011;40884;53.562;9.940;2022-11-27T02:21:46;16.75;;;7.97;;
54983;SDS011;40884;53.562;9.940;2022-11-27T02:23:12;18.25;;;8.73;;
54983;SDS011;40884;53.562;9.940;2022-11-27T02:24:20;19.38;;;8.52;;
54983;SDS011;40884;53.562;9.940;2022-11-27T02:26:30;17.53;;;9.17;;
54983;SDS011;40884;53.562;9.940;2022-11-27T02:29:02;19.30;;;8.48;;
54983;SDS011;40884;53.562;9.940;2022-11-27T02:30:03;18.17;;;7.90;;
54983;SDS011;40884;53.562;9.940;2022-11-27T02:31:15;16.80;;;8.90;;
54983;SDS011;40884;53.562;9.940;2022-11-27T02:32:23;19.20;;;8.93;;
54983;SDS011;40884;53.562;9.940;2022-11-27T02:33:24;25.45;;;9.25;;
54983;SDS011;40884;53.562;9.940;2022-11-27T02:35:47;24.50;;;9.98;;
54983;SDS011;40884;53.562;9.940;2022-11-27T02:36:59;20.70;;;9.07;;
54983;SDS011;40884;53.562;9.940;2022-11-27T02:38:10;23.30;;;9.68;;
54983;SDS011;40884;53.562;9.940;2022-11-27T02:39:13;19.05;;;9.65;;
54983;SDS011;40884;53.562;9.940;2022-11-27T02:41:23;18.60;;;9.45;;
54983;SDS011;40884;53.562;9.940;2022-11-27T02:42:25;22.92;;;10.75;;
54983;SDS011;40884;53.562;9.940;2022-11-27T02:43:27;20.57;;;9.67;;
54983;SDS011;40884;53.562;9.940;2022-11-27T02:44:30;19.45;;;9.43;;
54983;SDS011;40884;53.562;9.940;2022-11-27T02:45:38;22.58;;;10.00;;
54983;SDS011;40884;53.562;9.940;2022-11-27T02:46:40;19.55;;;9.23;;
54983;SDS011;40884;53.562;9.940;2022-11-27T02:47:41;25.70;;;10.90;;
54983;SDS011;40884;53.562;9.940;2022-11-27T02:48:43;24.98;;;10.60;;
54983;SDS011;40884;53.562;9.940;2022-11-27T02:49:44;21.88;;;10.43;;
54983;SDS011;40884;53.562;9.940;2022-11-27T02:50:45;20.77;;;9.43;;
54983;SDS011;40884;53.562;9.940;2022-11-27T02:51:48;21.08;;;9.98;;
54983;SDS011;40884;53.562;9.940;2022-11-27T02:52:50;20.50;;;9.95;;
54983;SDS011;40884;53.562;9.940;2022-11-27T02:53:56;22.33;;;10.65;;
54983;SDS011;40884;53.562;9.940;2022-11-27T02:54:57;23.75;;;9.57;;
54983;SDS011;40884;53.562;9.940;2022-11-27T02:55:59;22.33;;;10.18;;
54983;SDS011;40884;53.562;9.940;2022-11-27T02:57:02;25.08;;;9.93;;
54983;SDS011;40884;53.562;9.940;2022-11-27T02:58:04;21.00;;;9.87;;
54983;SDS011;40884;53.562;9.940;2022-11-27T02:59:08;23.23;;;9.10;;
54983;SDS011;40884;53.562;9.940;2022-11-27T03:00:10;22.63;;;10.23;;
54983;SDS011;40884;53.562;9.940;2022-11-27T03:01:10;18.40;;;9.77;;
54983;SDS011;40884;53.562;9.940;2022-11-27T03:02:13;19.17;;;9.90;;
54983;SDS011;40884;53.562;9.940;2022-11-27T03:03:16;18.23;;;9.48;;
54983;SDS011;40884;53.562;9.940;2022-11-27T03:04:18;21.38;;;9.20;;
54983;SDS011;40884;53.562;9.940;2022-11-27T03:05:19;20.60;;;9.70;;
54983;SDS011;40884;53.562;9.940;2022-11-27T03:06:23;22.58;;;9.35;;
54983;SDS011;40884;53.562;9.940;2022-11-27T03:07:29;18.08;;;9.52;;
54983;SDS011;40884;53.562;9.940;2022-11-27T03:08:32;23.73;;;10.43;;
54983;SDS011;40884;53.562;9.940;2022-11-27T03:09:35;19.98;;;10.63;;
54983;SDS011;40884;53.562;9.940;2022-11-27T03:10:39;19.75;;;9.70;;
54983;SDS011;40884;53.562;9.940;2022-11-27T03:11:42;19.33;;;10.13;;
54983;SDS011;40884;53.562;9.940;2022-11-27T03:12:43;20.67;;;10.00;;
54983;SDS011;40884;53.562;9.940;2022-11-27T03:13:44;23.17;;;10.77;;
54983;SDS011;40884;53.562;9.940;2022-11-27T03:14:47;19.67;;;9.60;;
54983;SDS011;40884;53.562;9.940;2022-11-27T03:15:58;23.07;;;10.10;;
54983;SDS011;40884;53.562;9.940;2022-11-27T03:18:05;19.17;;;9.73;;
54983;SDS011;40884;53.562;9.940;2022-11-27T03:19:22;20.48;;;10.52;;
54983;SDS011;40884;53.562;9.940;2022-11-27T03:20:25;21.40;;;9.77;;
54983;SDS011;40884;53.562;9.940;2022-11-27T03:21:27;17.48;;;9.40;;
54983;SDS011;40884;53.562;9.940;2022-11-27T03:22:29;21.83;;;10.20;;
54983;SDS011;40884;53.562;9.940;2022-11-27T03:23:29;30.10;;;11.00;;
54983;SDS011;40884;53.562;9.940;2022-11-27T03:24:29;22.40;;;9.83;;
54983;SDS011;40884;53.562;9.940;2022-11-27T03:25:32;24.25;;;10.30;;
54983;SDS011;40884;53.562;9.940;2022-11-27T03:26:32;14.93;;;9.67;;
54983;SDS011;40884;53.562;9.940;2022-11-27T03:27:34;20.43;;;10.17;;
54983;SDS011;40884;53.562;9.940;2022-11-27T03:28:36;22.00;;;10.52;;
54983;SDS011;40884;53.562;9.940;2022-11-27T03:29:46;26.43;;;10.30;;
54983;SDS011;40884;53.562;9.940;2022-11-27T03:30:48;20.73;;;10.40;;
54983;SDS011;40884;53.562;9.940;2022-11-27T03:31:48;20.83;;;10.43;;
54983;SDS011;40884;53.562;9.940;2022-11-27T03:32:48;19.97;;;9.27;;
54983;SDS011;40884;53.562;9.940;2022-11-27T03:33:49;23.20;;;11.67;;
54983;SDS011;40884;53.562;9.940;2022-11-27T03:34:49;21.40;;;10.60;;
54983;SDS011;40884;53.562;9.940;2022-11-27T03:35:50;20.93;;;9.80;;
54983;SDS011;40884;53.562;9.940;2022-11-27T03:36:51;19.17;;;9.73;;
54983;SDS011;40884;53.562;9.940;2022-11-27T03:37:51;21.47;;;10.77;;
54983;SDS011;40884;53.562;9.940;2022-11-27T03:38:51;19.50;;;10.10;;
54983;SDS011;40884;53.562;9.940;2022-11-27T03:39:52;19.53;;;9.70;;
54983;SDS011;40884;53.562;9.940;2022-11-27T03:41:04;22.13;;;11.03;;
54983;SDS011;40884;53.562;9.940;2022-11-27T03:42:15;19.77;;;10.60;;
54983;SDS011;40884;53.562;9.940;2022-11-27T03:43:20;23.23;;;10.48;;
54983;SDS011;40884;53.562;9.940;2022-11-27T03:46:53;21.00;;;11.05;;
54983;SDS011;40884;53.562;9.940;2022-11-27T03:49:15;25.38;;;10.88;;
54983;SDS011;40884;53.562;9.940;2022-11-27T03:50:30;20.65;;;10.80;;
54983;SDS011;40884;53.562;9.940;2022-11-27T03:51:38;20.02;;;11.15;;
54983;SDS011;40884;53.562;9.940;2022-11-27T03:52:45;24.40;;;11.00;;
54983;SDS011;40884;53.562;9.940;2022-11-27T03:54:02;20.85;;;11.30;;
54983;SDS011;40884;53.562;9.940;2022-11-27T03:55:08;22.10;;;10.60;;
54983;SDS011;40884;53.562;9.940;2022-11-27T03:56:34;19.35;;;11.00;;
54983;SDS011;40884;53.562;9.940;2022-11-27T03:57:43;20.20;;;10.20;;
54983;SDS011;40884;53.562;9.940;2022-11-27T03:58:47;19.25;;;9.75;;
54983;SDS011;40884;53.562;9.940;2022-11-27T03:59:51;20.88;;;9.90;;
54983;SDS011;40884;53.562;9.940;2022-11-27T04:00:51;20.77;;;10.63;;
54983;SDS011;40884;53.562;9.940;2022-11-27T04:01:52;21.63;;;10.90;;
54983;SDS011;40884;53.562;9.940;2022-11-27T04:02:52;18.47;;;10.20;;
54983;SDS011;40884;53.562;9.940;2022-11-27T04:03:52;19.17;;;11.77;;
54983;SDS011;40884;53.562;9.940;2022-11-27T04:04:53;20.47;;;11.13;;
54983;SDS011;40884;53.562;9.940;2022-11-27T04:05:53;20.67;;;10.47;;
54983;SDS011;40884;53.562;9.940;2022-11-27T04:06:53;23.70;;;11.23;;
54983;SDS011;40884;53.562;9.940;2022-11-27T04:07:53;23.53;;;10.97;;
54983;SDS011;40884;53.562;9.940;2022-11-27T04:08:53;21.60;;;11.63;;
54983;SDS011;40884;53.562;9.940;2022-11-27T04:09:54;22.57;;;10.73;;
54983;SDS011;40884;53.562;9.940;2022-11-27T04:10:54;20.20;;;10.97;;
54983;SDS011;40884;53.562;9.940;2022-11-27T04:11:54;23.67;;;10.73;;
54983;SDS011;40884;53.562;9.940;2022-11-27T04:12:54;23.67;;;11.87;;
54983;SDS011;40884;53.562;9.940;2022-11-27T04:13:55;27.80;;;12.43;;
54983;SDS011;40884;53.562;9.940;2022-11-27T04:14:55;19.53;;;11.03;;
54983;SDS011;40884;53.562;9.940;2022-11-27T04:15:58;20.17;;;11.43;;
54983;SDS011;40884;53.562;9.940;2022-11-27T04:16:58;26.00;;;11.82;;
54983;SDS011;40884;53.562;9.940;2022-11-27T04:17:58;18.23;;;11.60;;
54983;SDS011;40884;53.562;9.940;2022-11-27T04:18:58;22.80;;;12.07;;
54983;SDS011;40884;53.562;9.940;2022-11-27T04:19:59;20.40;;;11.30;;
54983;SDS011;40884;53.562;9.940;2022-11-27T04:20:59;26.43;;;12.13;;
54983;SDS011;40884;53.562;9.940;2022-11-27T04:21:59;18.83;;;11.10;;
54983;SDS011;40884;53.562;9.940;2022-11-27T04:22:59;21.40;;;11.93;;
54983;SDS011;40884;53.562;9.940;2022-11-27T04:23:59;23.63;;;11.57;;
54983;SDS011;40884;53.562;9.940;2022-11-27T04:24:59;16.73;;;10.53;;
54983;SDS011;40884;53.562;9.940;2022-11-27T04:26:00;24.10;;;12.00;;
54983;SDS011;40884;53.562;9.940;2022-11-27T04:27:00;20.20;;;11.70;;
54983;SDS011;40884;53.562;9.940;2022-11-27T04:28:00;21.47;;;11.27;;
54983;SDS011;40884;53.562;9.940;2022-11-27T04:29:00;17.10;;;10.80;;
54983;SDS011;40884;53.562;9.940;2022-11-27T04:30:00;24.33;;;11.33;;
54983;SDS011;40884;53.562;9.940;2022-11-27T04:31:00;20.07;;;11.67;;
54983;SDS011;40884;53.562;9.940;2022-11-27T04:32:01;18.50;;;11.20;;
54983;SDS011;40884;53.562;9.940;2022-11-27T04:33:01;21.13;;;11.93;;
54983;SDS011;40884;53.562;9.940;2022-11-27T04:34:01;19.00;;;11.20;;
54983;SDS011;40884;53.562;9.940;2022-11-27T04:35:02;22.47;;;11.17;;
54983;SDS011;40884;53.562;9.940;2022-11-27T04:36:02;18.47;;;11.30;;
54983;SDS011;40884;53.562;9.940;2022-11-27T04:37:02;21.17;;;11.90;;
54983;SDS011;40884;53.562;9.940;2022-11-27T04:38:02;22.03;;;11.97;;
54983;SDS011;40884;53.562;9.940;2022-11-27T04:39:02;18.27;;;12.30;;
54983;SDS011;40884;53.562;9.940;2022-11-27T04:40:03;23.80;;;12.10;;
54983;SDS011;40884;53.562;9.940;2022-11-27T04:41:03;21.60;;;12.30;;
54983;SDS011;40884;53.562;9.940;2022-11-27T04:42:03;24.43;;;12.30;;
54983;SDS011;40884;53.562;9.940;2022-11-27T04:43:04;18.67;;;12.17;;
54983;SDS011;40884;53.562;9.940;2022-11-27T04:44:04;20.73;;;11.33;;
54983;SDS011;40884;53.562;9.940;2022-11-27T04:45:04;21.23;;;12.80;;
54983;SDS011;40884;53.562;9.940;2022-11-27T04:46:05;23.37;;;12.07;;
54983;SDS011;40884;53.562;9.940;2022-11-27T04:47:05;22.40;;;13.40;;
54983;SDS011;40884;53.562;9.940;2022-11-27T04:48:05;21.07;;;12.20;;
54983;SDS011;40884;53.562;9.940;2022-11-27T04:49:05;23.10;;;12.30;;
54983;SDS011;40884;53.562;9.940;2022-11-27T04:50:06;20.17;;;11.83;;
54983;SDS011;40884;53.562;9.940;2022-11-27T04:51:06;21.70;;;13.23;;
54983;SDS011;40884;53.562;9.940;2022-11-27T04:52:06;23.43;;;13.57;;
54983;SDS011;40884;53.562;9.940;2022-11-27T04:53:06;21.07;;;11.83;;
54983;SDS011;40884;53.562;9.940;2022-11-27T04:54:06;22.57;;;13.17;;
54983;SDS011;40884;53.562;9.940;2022-11-27T04:55:07;22.60;;;13.30;;
54983;SDS011;40884;53.562;9.940;2022-11-27T04:56:08;24.73;;;13.63;;
54983;SDS011;40884;53.562;9.940;2022-11-27T04:57:08;24.00;;;13.53;;
54983;SDS011;40884;53.562;9.940;2022-11-27T04:58:08;24.20;;;13.17;;
54983;SDS011;40884;53.562;9.940;2022-11-27T04:59:08;25.30;;;14.43;;
54983;SDS011;40884;53.562;9.940;2022-11-27T05:00:08;23.37;;;14.80;;
54983;SDS011;40884;53.562;9.940;2022-11-27T05:01:09;23.43;;;13.80;;
54983;SDS011;40884;53.562;9.940;2022-11-27T05:02:09;25.50;;;14.10;;
54983;SDS011;40884;53.562;9.940;2022-11-27T05:03:09;22.60;;;13.37;;
54983;SDS011;40884;53.562;9.940;2022-11-27T05:04:09;27.93;;;15.20;;
54983;SDS011;40884;53.562;9.940;2022-11-27T05:05:09;23.80;;;13.90;;
54983;SDS011;40884;53.562;9.940;2022-11-27T05:06:09;24.73;;;14.90;;
54983;SDS011;40884;53.562;9.940;2022-11-27T05:07:09;26.17;;;14.73;;
54983;SDS011;40884;53.562;9.940;2022-11-27T05:08:10;26.43;;;15.13;;
54983;SDS011;40884;53.562;9.940;2022-11-27T05:09:10;24.23;;;15.07;;
54983;SDS011;40884;53.562;9.940;2022-11-27T05:10:10;24.90;;;15.90;;
54983;SDS011;40884;53.562;9.940;2022-11-27T05:11:11;21.33;;;14.50;;
54983;SDS011;40884;53.562;9.940;2022-11-27T05:12:11;27.00;;;15.25;;
54983;SDS011;40884;53.562;9.940;2022-11-27T05:13:12;24.33;;;15.10;;
54983;SDS011;40884;53.562;9.940;2022-11-27T05:14:12;24.87;;;15.70;;
54983;SDS011;40884;53.562;9.940;2022-11-27T05:15:12;24.93;;;15.03;;
54983;SDS011;40884;53.562;9.940;2022-11-27T05:16:12;23.90;;;13.90;;
54983;SDS011;40884;53.562;9.940;2022-11-27T05:17:12;24.60;;;15.17;;
54983;SDS011;40884;53.562;9.940;2022-11-27T05:18:12;26.13;;;14.60;;
54983;SDS011;40884;53.562;9.940;2022-11-27T05:19:13;25.47;;;14.37;;
54983;SDS011;40884;53.562;9.940;2022-11-27T05:20:13;25.60;;;16.03;;
54983;SDS011;40884;53.562;9.940;2022-11-27T05:21:13;27.60;;;16.53;;
54983;SDS011;40884;53.562;9.940;2022-11-27T05:22:13;28.37;;;15.50;;
54983;SDS011;40884;53.562;9.940;2022-11-27T05:23:13;26.87;;;16.40;;
54983;SDS011;40884;53.562;9.940;2022-11-27T05:24:14;26.63;;;14.67;;
54983;SDS011;40884;53.562;9.940;2022-11-27T05:25:15;24.17;;;14.90;;
54983;SDS011;40884;53.562;9.940;2022-11-27T05:26:15;24.80;;;15.17;;
54983;SDS011;40884;53.562;9.940;2022-11-27T05:27:15;25.67;;;16.83;;
54983;SDS011;40884;53.562;9.940;2022-11-27T05:28:15;30.63;;;17.50;;
54983;SDS011;40884;53.562;9.940;2022-11-27T05:29:16;31.40;;;17.90;;
54983;SDS011;40884;53.562;9.940;2022-11-27T05:30:16;26.57;;;17.87;;
54983;SDS011;40884;53.562;9.940;2022-11-27T05:31:16;28.00;;;17.47;;
54983;SDS011;40884;53.562;9.940;2022-11-27T05:32:16;24.43;;;17.40;;
54983;SDS011;40884;53.562;9.940;2022-11-27T05:33:17;29.70;;;17.67;;
54983;SDS011;40884;53.562;9.940;2022-11-27T05:34:17;29.60;;;17.90;;
54983;SDS011;40884;53.562;9.940;2022-11-27T05:35:17;34.33;;;20.70;;
54983;SDS011;40884;53.562;9.940;2022-11-27T05:36:17;28.43;;;18.17;;
54983;SDS011;40884;53.562;9.940;2022-11-27T05:37:17;29.03;;;19.10;;
54983;SDS011;40884;53.562;9.940;2022-11-27T05:38:18;32.53;;;20.27;;
54983;SDS011;40884;53.562;9.940;2022-11-27T05:39:18;34.10;;;19.63;;
54983;SDS011;40884;53.562;9.940;2022-11-27T05:40:18;34.47;;;19.87;;
54983;SDS011;40884;53.562;9.940;2022-11-27T05:41:18;27.97;;;19.30;;
54983;SDS011;40884;53.562;9.940;2022-11-27T05:42:18;35.07;;;21.37;;
54983;SDS011;40884;53.562;9.940;2022-11-27T05:43:19;33.30;;;20.73;;
54983;SDS011;40884;53.562;9.940;2022-11-27T05:44:19;32.00;;;20.30;;
54983;SDS011;40884;53.562;9.940;2022-11-27T05:45:19;29.37;;;19.77;;
54983;SDS011;40884;53.562;9.940;2022-11-27T05:46:20;29.40;;;19.10;;
54983;SDS011;40884;53.562;9.940;2022-11-27T05:47:20;32.47;;;19.83;;
54983;SDS011;40884;53.562;9.940;2022-11-27T05:48:20;33.13;;;21.00;;
54983;SDS011;40884;53.562;9.940;2022-11-27T05:49:20;32.03;;;20.37;;
54983;SDS011;40884;53.562;9.940;2022-11-27T05:50:20;31.03;;;19.80;;
54983;SDS011;40884;53.562;9.940;2022-11-27T05:51:21;31.53;;;21.27;;
54983;SDS011;40884;53.562;9.940;2022-11-27T05:52:21;35.23;;;21.50;;
54983;SDS011;40884;53.562;9.940;2022-11-27T05:53:21;32.87;;;21.60;;
54983;SDS011;40884;53.562;9.940;2022-11-27T05:54:21;34.37;;;21.33;;
54983;SDS011;40884;53.562;9.940;2022-11-27T05:55:21;33.63;;;21.00;;
54983;SDS011;40884;53.562;9.940;2022-11-27T05:56:21;35.70;;;21.07;;
54983;SDS011;40884;53.562;9.940;2022-11-27T05:57:22;30.77;;;20.27;;
54983;SDS011;40884;53.562;9.940;2022-11-27T05:58:22;32.70;;;21.57;;
54983;SDS011;40884;53.562;9.940;2022-11-27T05:59:22;30.80;;;21.43;;
54983;SDS011;40884;53.562;9.940;2022-11-27T06:00:22;34.20;;;21.70;;
54983;SDS011;40884;53.562;9.940;2022-11-27T06:01:22;32.60;;;21.07;;
54983;SDS011;40884;53.562;9.940;2022-11-27T06:02:23;31.93;;;21.53;;
54983;SDS011;40884;53.562;9.940;2022-11-27T06:03:23;37.63;;;22.03;;
54983;SDS011;40884;53.562;9.940;2022-11-27T06:04:23;34.67;;;21.40;;
54983;SDS011;40884;53.562;9.940;2022-11-27T06:05:24;31.23;;;20.70;;
54983;SDS011;40884;53.562;9.940;2022-11-27T06:06:24;32.43;;;21.17;;
54983;SDS011;40884;53.562;9.940;2022-11-27T06:07:24;31.43;;;20.57;;
54983;SDS011;40884;53.562;9.940;2022-11-27T06:08:24;33.40;;;20.37;;
54983;SDS011;40884;53.562;9.940;2022-11-27T06:09:24;33.67;;;19.50;;
54983;SDS011;40884;53.562;9.940;2022-11-27T06:10:24;30.40;;;19.97;;
54983;SDS011;40884;53.562;9.940;2022-11-27T06:11:24;31.67;;;19.60;;
54983;SDS011;40884;53.562;9.940;2022-11-27T06:12:24;29.20;;;19.23;;
54983;SDS011;40884;53.562;9.940;2022-11-27T06:13:25;30.73;;;19.37;;
54983;SDS011;40884;53.562;9.940;2022-11-27T06:14:25;28.60;;;19.37;;
54983;SDS011;40884;53.562;9.940;2022-11-27T06:15:25;29.67;;;18.97;;
54983;SDS011;40884;53.562;9.940;2022-11-27T06:16:25;28.37;;;18.87;;
54983;SDS011;40884;53.562;9.940;2022-11-27T06:17:25;32.97;;;20.40;;
54983;SDS011;40884;53.562;9.940;2022-11-27T06:18:26;31.03;;;18.73;;